Time;durP1;ratioP1;P1;durP2;ratioP2;P2;SDS_P1;SDS_P2;PMS_P1;PMS_P2;Temp;Humidity;BMP_temperature;BMP_pressure;BME280_temperature;BME280_humidity;BME280_pressure;Samples;Min_cycle;Max_cycle;Signal;HPM_P1;HPM_P2
2023/05/18 00:01:02;;;;;;;7.10;1.20;;;9.20;13.90;;;;;;5053253;28;20044;-63
2023/05/18 00:03:28;;;;;;;5.32;1.10;;;8.60;14.30;;;;;;5053282;28;20472;-63
2023/05/18 00:06:03;;;;;;;4.70;0.85;;;8.70;15.80;;;;;;5051581;28;20049;-63
2023/05/18 00:08:35;;;;;;;1.65;0.75;;;8.70;15.60;;;;;;5051676;28;20087;-62
2023/05/18 00:11:02;;;;;;;2.88;0.82;;;8.60;18.90;;;;;;5053147;28;20033;-62
2023/05/18 00:13:28;;;;;;;3.28;0.88;;;8.60;19.50;;;;;;5052710;28;20128;-62
2023/05/18 00:15:54;;;;;;;4.82;0.90;;;8.60;20.10;;;;;;5053111;28;20112;-62
2023/05/18 00:18:22;;;;;;;2.65;0.77;;;8.60;22.10;;;;;;5052699;28;20592;-62
2023/05/18 00:21:01;;;;;;;9.00;1.27;;;8.60;24.50;;;;;;5051523;28;20075;-62
2023/05/18 00:23:31;;;;;;;1.63;0.80;;;9.00;24.70;;;;;;5052968;28;20032;-62
2023/05/18 00:26:01;;;;;;;2.93;0.97;;;8.60;28.20;;;;;;5051760;28;20044;-62
2023/05/18 00:28:28;;;;;;;0.88;0.60;;;8.60;26.40;;;;;;5052874;28;20275;-63
2023/05/18 00:30:54;;;;;;;2.92;0.65;;;8.60;24.20;;;;;;5052899;28;20396;-62
2023/05/18 00:33:20;;;;;;;1.23;0.80;;;8.60;23.00;;;;;;5052813;28;20044;-62
2023/05/18 00:35:45;;;;;;;3.88;0.90;;;8.60;22.30;;;;;;5051320;28;20041;-62
2023/05/18 00:38:11;;;;;;;1.30;0.88;;;8.60;21.40;;;;;;5053036;28;20392;-62
2023/05/18 00:40:40;;;;;;;5.00;0.57;;;8.60;19.60;;;;;;5057544;28;20033;-62
2023/05/18 00:43:06;;;;;;;1.17;0.70;;;8.60;19.60;;;;;;5058205;28;20048;-62
2023/05/18 00:45:32;;;;;;;2.20;0.68;;;8.50;19.20;;;;;;5059397;28;20037;-62
2023/05/18 00:47:57;;;;;;;5.05;0.80;;;8.50;18.80;;;;;;5059398;28;20134;-62
2023/05/18 00:50:23;;;;;;;1.73;0.90;;;8.50;19.10;;;;;;5057854;28;20095;-62
2023/05/18 00:52:50;;;;;;;5.32;0.90;;;8.50;18.00;;;;;;5058102;28;20048;-62
2023/05/18 00:55:16;;;;;;;2.50;0.75;;;8.50;18.20;;;;;;5059063;28;20052;-62
2023/05/18 00:57:43;;;;;;;6.63;1.00;;;8.50;18.40;;;;;;5059227;28;20052;-63
2023/05/18 01:00:12;;;;;;;1.23;0.60;;;8.50;18.70;;;;;;5057807;28;20041;-62
2023/05/18 01:02:41;;;;;;;1.25;0.80;;;8.40;17.70;;;;;;5059275;28;20428;-62
2023/05/18 01:05:11;;;;;;;6.03;0.95;;;8.40;15.10;;;;;;5058888;28;20057;-62
2023/05/18 01:07:43;;;;;;;2.65;0.70;;;8.40;16.40;;;;;;5059280;28;20044;-62
2023/05/18 01:10:10;;;;;;;7.07;0.90;;;8.40;15.40;;;;;;5059178;28;20439;-62
2023/05/18 01:12:42;;;;;;;1.65;0.52;;;8.40;15.40;;;;;;5057861;28;20052;-62
2023/05/18 01:15:17;;;;;;;3.50;0.75;;;8.40;15.90;;;;;;5059169;28;20048;-62
2023/05/18 01:18:03;;;;;;;0.70;0.60;;;8.30;16.40;;;;;;5058247;28;20488;-62
2023/05/18 01:20:37;;;;;;;2.58;0.80;;;8.30;17.50;;;;;;5059149;28;20044;-62
2023/05/18 01:23:24;;;;;;;4.18;1.13;;;8.30;16.10;;;;;;5058822;28;20399;-62
2023/05/18 01:25:53;;;;;;;0.60;0.50;;;8.30;17.50;;;;;;5058839;28;20048;-62
2023/05/18 01:28:31;;;;;;;5.82;1.00;;;8.80;17.20;;;;;;5059068;28;20033;-62
2023/05/18 01:30:57;;;;;;;3.90;0.90;;;8.30;17.60;;;;;;5058674;28;20040;-62
2023/05/18 01:33:24;;;;;;;0.95;0.70;;;8.30;17.20;;;;;;5059005;28;20063;-62
2023/05/18 01:35:50;;;;;;;1.85;0.90;;;8.30;17.20;;;;;;5059029;28;20033;-62
2023/05/18 01:38:24;;;;;;;1.35;0.68;;;8.30;17.70;;;;;;5059039;28;20404;-62
2023/05/18 01:41:07;;;;;;;2.25;0.75;;;8.30;17.80;;;;;;5058905;28;20029;-62
2023/05/18 01:43:35;;;;;;;1.85;0.77;;;8.30;17.90;;;;;;5058633;28;20174;-62
2023/05/18 01:46:13;;;;;;;3.58;0.80;;;8.30;17.90;;;;;;5057672;28;20443;-62
2023/05/18 01:48:43;;;;;;;1.45;0.75;;;8.20;18.00;;;;;;5058652;28;20040;-62
2023/05/18 01:51:12;;;;;;;1.25;0.60;;;8.30;17.60;;;;;;5055324;28;20036;-62
2023/05/18 01:53:46;;;;;;;2.20;0.88;;;8.30;17.50;;;;;;5055613;28;20041;-62
2023/05/18 01:56:13;;;;;;;1.75;0.80;;;8.30;18.00;;;;;;5055578;28;20489;-62
2023/05/18 01:58:39;;;;;;;1.80;0.80;;;8.30;18.50;;;;;;5055615;28;20033;-62
2023/05/18 02:01:05;;;;;;;1.17;0.80;;;8.30;18.90;;;;;;5054107;28;20037;-62
2023/05/18 02:03:32;;;;;;;0.90;0.60;;;8.30;18.70;;;;;;5055196;28;20086;-62
2023/05/18 02:05:57;;;;;;;2.55;0.65;;;8.30;19.30;;;;;;5055080;28;20082;-62
2023/05/18 02:08:23;;;;;;;1.52;0.70;;;8.20;26.40;;;;;;5055459;28;20123;-62
2023/05/18 02:10:48;;;;;;;3.97;1.10;;;9.20;20.90;;;;;;5055103;28;20041;-62
2023/05/18 02:13:14;;;;;;;3.05;0.90;;;8.30;20.70;;;;;;5055225;28;20037;-62
2023/05/18 02:15:40;;;;;;;4.32;1.13;;;8.30;22.10;;;;;;5054013;28;20508;-62
2023/05/18 02:18:07;;;;;;;1.70;0.77;;;8.20;22.50;;;;;;5054999;28;20064;-62
2023/05/18 02:20:32;;;;;;;2.03;1.02;;;8.20;22.30;;;;;;5055198;28;20113;-62
2023/05/18 02:22:59;;;;;;;1.58;0.73;;;8.20;24.10;;;;;;5053606;28;20128;-62
2023/05/18 02:25:25;;;;;;;1.10;0.80;;;8.30;25.50;;;;;;5055158;28;20486;-62
2023/05/18 02:27:51;;;;;;;1.35;0.90;;;8.30;25.60;;;;;;5054840;28;20373;-63
2023/05/18 02:30:17;;;;;;;0.60;0.43;;;8.30;25.60;;;;;;5055029;28;20427;-62
2023/05/18 02:32:45;;;;;;;1.70;0.80;;;8.20;25.80;;;;;;5054566;28;20040;-63
2023/05/18 02:35:11;;;;;;;2.75;0.57;;;8.20;25.70;;;;;;5054609;28;20037;-62
2023/05/18 02:37:38;;;;;;;4.93;0.98;;;8.20;24.90;;;;;;5054605;28;20087;-62
2023/05/18 02:40:14;;;;;;;1.33;0.73;;;8.20;28.60;;;;;;5053277;28;20090;-62
2023/05/18 02:42:40;;;;;;;2.75;0.75;;;8.20;28.20;;;;;;5054801;28;20090;-62
2023/05/18 02:45:06;;;;;;;1.70;1.00;;;8.10;29.10;;;;;;5054763;28;20431;-63
2023/05/18 02:47:32;;;;;;;1.00;0.70;;;8.20;28.40;;;;;;5054661;28;20503;-63
2023/05/18 02:49:57;;;;;;;4.93;1.00;;;8.10;29.90;;;;;;5054636;28;20048;-63
2023/05/18 02:52:23;;;;;;;2.60;1.00;;;8.10;28.30;;;;;;5054559;28;20057;-63
2023/05/18 02:54:49;;;;;;;1.00;0.75;;;8.10;28.50;;;;;;5054579;28;20041;-63
2023/05/18 02:57:15;;;;;;;1.30;0.88;;;8.10;27.00;;;;;;5054251;28;20452;-63
2023/05/18 02:59:41;;;;;;;2.47;0.73;;;8.10;26.60;;;;;;5053258;28;20117;-63
2023/05/18 03:02:06;;;;;;;2.38;0.82;;;8.00;28.00;;;;;;5054048;28;20064;-63
2023/05/18 03:04:32;;;;;;;2.05;0.95;;;8.10;28.40;;;;;;5053929;28;20147;-63
2023/05/18 03:07:01;;;;;;;2.40;0.88;;;8.00;30.20;;;;;;5054310;28;20090;-63
2023/05/18 03:09:27;;;;;;;2.00;1.10;;;8.20;31.40;;;;;;5054230;28;20489;-63
2023/05/18 03:11:53;;;;;;;0.85;0.60;;;8.10;32.60;;;;;;5054207;28;20044;-63
2023/05/18 03:14:18;;;;;;;2.03;0.80;;;8.10;33.20;;;;;;5052714;28;20488;-63
2023/05/18 03:16:44;;;;;;;1.42;0.80;;;8.10;34.10;;;;;;5054115;28;20409;-63
2023/05/18 03:19:09;;;;;;;1.90;0.80;;;8.10;32.40;;;;;;5053812;28;20049;-63
2023/05/18 03:21:35;;;;;;;2.80;0.95;;;8.00;33.50;;;;;;5052506;28;20471;-62
2023/05/18 03:24:02;;;;;;;3.80;1.08;;;8.00;33.90;;;;;;5053655;28;20048;-63
2023/05/18 03:26:29;;;;;;;1.83;0.77;;;8.00;36.10;;;;;;5052715;28;20047;-63
2023/05/18 03:28:56;;;;;;;2.05;0.95;;;8.00;35.30;;;;;;5052266;28;20053;-63
2023/05/18 03:31:21;;;;;;;3.95;0.90;;;8.00;36.30;;;;;;5052711;28;20033;-63
2023/05/18 03:33:47;;;;;;;2.03;1.10;;;8.00;39.30;;;;;;5053715;28;20040;-63
2023/05/18 03:36:12;;;;;;;2.83;0.88;;;8.10;37.60;;;;;;5053723;28;20473;-63
2023/05/18 03:38:38;;;;;;;1.30;0.80;;;8.10;38.40;;;;;;5053389;28;20157;-63
2023/05/18 03:41:04;;;;;;;2.33;1.02;;;8.10;40.90;;;;;;5053543;28;20048;-63
2023/05/18 03:43:31;;;;;;;1.77;0.60;;;8.10;52.20;;;;;;5053621;28;20469;-63
2023/05/18 03:45:57;;;;;;;4.07;0.90;;;8.10;36.70;;;;;;5053297;28;20067;-63
2023/05/18 03:48:23;;;;;;;1.33;0.80;;;8.10;38.60;;;;;;5053606;28;20037;-63
2023/05/18 03:50:49;;;;;;;0.98;0.80;;;8.10;38.60;;;;;;5053545;28;20059;-63
2023/05/18 03:53:20;;;;;;;3.55;1.02;;;8.10;37.80;;;;;;5051808;28;20052;-63
2023/05/18 03:55:46;;;;;;;2.88;0.95;;;8.10;39.70;;;;;;5053422;28;20067;-63
2023/05/18 03:58:11;;;;;;;2.67;0.93;;;8.00;40.70;;;;;;5053330;28;20033;-63
2023/05/18 04:00:37;;;;;;;1.92;1.00;;;8.00;41.00;;;;;;5051647;28;20382;-63
2023/05/18 04:03:03;;;;;;;1.42;0.70;;;8.10;42.80;;;;;;5053254;28;20032;-63
2023/05/18 04:05:29;;;;;;;5.05;0.90;;;8.00;46.80;;;;;;5052835;28;20060;-63
2023/05/18 04:07:56;;;;;;;1.52;0.98;;;8.10;47.60;;;;;;5053111;28;20059;-63
2023/05/18 04:10:22;;;;;;;3.85;0.70;;;8.10;50.50;;;;;;5052873;28;20051;-63
2023/05/18 04:12:47;;;;;;;3.72;0.93;;;8.10;50.40;;;;;;5052801;28;20041;-63
2023/05/18 04:15:13;;;;;;;1.08;0.82;;;8.10;49.30;;;;;;5052118;28;20037;-63
2023/05/18 04:17:44;;;;;;;4.43;1.05;;;8.10;48.80;;;;;;5052752;28;20067;-63
2023/05/18 04:20:12;;;;;;;0.80;0.52;;;8.10;48.70;;;;;;5053064;28;20381;-63
2023/05/18 04:22:42;;;;;;;3.40;1.00;;;8.20;49.90;;;;;;5052976;28;20044;-63
2023/05/18 04:25:10;;;;;;;3.72;0.95;;;8.20;46.90;;;;;;5052744;28;20499;-63
2023/05/18 04:27:37;;;;;;;2.58;0.88;;;8.30;48.20;;;;;;5051720;28;20084;-63
2023/05/18 04:30:03;;;;;;;4.65;1.00;;;8.30;50.00;;;;;;5052877;28;20044;-62
2023/05/18 04:32:29;;;;;;;1.55;0.77;;;8.30;45.30;;;;;;5052766;28;20043;-63
2023/05/18 04:34:57;;;;;;;0.73;0.70;;;8.30;46.50;;;;;;5052785;28;20076;-63
2023/05/18 04:37:23;;;;;;;5.68;1.20;;;8.40;47.70;;;;;;5052562;28;20052;-63
2023/05/18 04:39:50;;;;;;;1.60;0.68;;;8.30;42.40;;;;;;5052828;28;20044;-63
2023/05/18 04:42:17;;;;;;;2.15;0.85;;;8.40;42.70;;;;;;5052842;28;20070;-63
2023/05/18 04:44:43;;;;;;;1.77;0.70;;;8.40;44.80;;;;;;5052857;28;20043;-63
2023/05/18 04:47:08;;;;;;;1.17;0.70;;;8.50;48.40;;;;;;5052799;28;20108;-63
2023/05/18 04:49:37;;;;;;;3.15;0.68;;;8.50;46.90;;;;;;5052844;28;20099;-64
2023/05/18 04:52:05;;;;;;;0.43;0.43;;;8.50;45.60;;;;;;5052847;28;20120;-63
2023/05/18 04:54:30;;;;;;;2.40;0.70;;;8.60;46.80;;;;;;5052672;28;20087;-64
2023/05/18 04:56:57;;;;;;;0.70;0.57;;;8.60;44.50;;;;;;5052706;28;20044;-64
2023/05/18 04:59:25;;;;;;;3.20;0.70;;;8.60;43.50;;;;;;5052699;28;20547;-64
2023/05/18 05:01:52;;;;;;;2.97;1.00;;;8.60;43.80;;;;;;5052569;28;20048;-64
2023/05/18 05:04:21;;;;;;;2.67;0.90;;;8.70;44.60;;;;;;5052390;28;20141;-64
2023/05/18 05:06:47;;;;;;;0.73;0.70;;;8.70;43.30;;;;;;5052447;28;20439;-64
2023/05/18 05:09:13;;;;;;;1.48;0.73;;;8.70;44.80;;;;;;5052524;28;20037;-64
2023/05/18 05:11:40;;;;;;;2.78;1.02;;;8.70;43.90;;;;;;5051288;28;20123;-64
2023/05/18 05:14:06;;;;;;;4.32;0.85;;;9.30;39.70;;;;;;5052409;28;20049;-64
2023/05/18 05:16:31;;;;;;;1.25;0.85;;;8.90;41.10;;;;;;5052420;28;20396;-64
2023/05/18 05:18:57;;;;;;;2.85;1.10;;;8.90;41.40;;;;;;5052095;28;20048;-64
2023/05/18 05:21:23;;;;;;;0.82;0.40;;;9.50;40.90;;;;;;5052456;28;20036;-64
2023/05/18 05:23:48;;;;;;;3.70;0.68;;;9.00;40.90;;;;;;5050788;28;20485;-64
2023/05/18 05:26:14;;;;;;;1.65;0.85;;;9.00;41.00;;;;;;5055068;28;20500;-64
2023/05/18 05:28:39;;;;;;;3.60;1.02;;;9.00;40.90;;;;;;5056094;28;20037;-64
2023/05/18 05:31:05;;;;;;;5.68;0.88;;;9.00;39.10;;;;;;5056123;28;20049;-65
2023/05/18 05:33:31;;;;;;;0.85;0.60;;;9.10;38.80;;;;;;5055943;28;20091;-65
2023/05/18 05:35:57;;;;;;;5.10;0.80;;;10.10;40.70;;;;;;5055974;28;20037;-64
2023/05/18 05:38:22;;;;;;;3.83;1.25;;;9.20;37.40;;;;;;5054437;28;20041;-64
2023/05/18 05:40:48;;;;;;;2.17;0.90;;;9.20;38.90;;;;;;5055870;28;20527;-64
2023/05/18 05:43:13;;;;;;;2.35;0.88;;;9.20;42.30;;;;;;5055493;28;20066;-64
2023/05/18 05:45:39;;;;;;;2.45;0.90;;;9.30;42.60;;;;;;5055853;28;20456;-64
2023/05/18 05:48:05;;;;;;;5.32;0.90;;;9.30;43.50;;;;;;5055791;28;20049;-64
2023/05/18 05:50:31;;;;;;;3.80;0.80;;;9.30;41.50;;;;;;5055781;28;20052;-64
2023/05/18 05:52:57;;;;;;;0.90;0.60;;;9.40;39.20;;;;;;5055650;28;20041;-64
2023/05/18 05:55:23;;;;;;;2.50;0.70;;;10.00;38.30;;;;;;5055217;28;20039;-64
2023/05/18 05:57:48;;;;;;;4.78;1.00;;;9.50;33.90;;;;;;5055579;28;20112;-64
2023/05/18 06:00:14;;;;;;;1.33;0.75;;;9.60;35.20;;;;;;5054123;28;20496;-64
2023/05/18 06:02:40;;;;;;;3.30;1.10;;;9.60;34.20;;;;;;5053977;28;20506;-64
2023/05/18 06:05:06;;;;;;;2.70;0.70;;;9.60;32.20;;;;;;5037246;28;20403;-64
2023/05/18 06:07:32;;;;;;;1.50;0.90;;;9.70;33.40;;;;;;5055477;28;20052;-64
2023/05/18 06:09:58;;;;;;;4.32;0.85;;;9.70;32.20;;;;;;5054113;28;20033;-64
2023/05/18 06:12:23;;;;;;;1.17;0.80;;;9.70;27.80;;;;;;5055207;28;20112;-64
2023/05/18 06:14:51;;;;;;;6.80;0.68;;;9.70;26.60;;;;;;5055223;28;20039;-65
2023/05/18 06:17:17;;;;;;;1.55;0.68;;;9.70;24.60;;;;;;5053979;28;20049;-64
2023/05/18 06:19:42;;;;;;;1.75;0.77;;;9.80;25.80;;;;;;5055259;28;20498;-64
2023/05/18 06:22:08;;;;;;;4.68;0.85;;;9.90;28.50;;;;;;5054943;28;20485;-64
2023/05/18 06:24:34;;;;;;;0.60;0.50;;;10.00;27.60;;;;;;5055241;28;20045;-65
2023/05/18 06:27:00;;;;;;;4.18;0.70;;;10.10;27.30;;;;;;5054801;28;20036;-63
2023/05/18 06:29:25;;;;;;;1.05;0.70;;;10.10;26.80;;;;;;5055015;28;20552;-64
2023/05/18 06:31:51;;;;;;;1.95;0.55;;;10.20;29.40;;;;;;5055029;28;20088;-65
2023/05/18 06:34:17;;;;;;;3.00;0.75;;;10.30;26.30;;;;;;5053501;28;20067;-63
2023/05/18 06:36:42;;;;;;;3.42;0.60;;;10.30;27.80;;;;;;5054359;28;20029;-64
2023/05/18 06:39:08;;;;;;;0.50;0.40;;;10.30;26.70;;;;;;5055001;28;20033;-64
2023/05/18 06:41:34;;;;;;;0.88;0.50;;;10.40;26.10;;;;;;5054988;28;20370;-64
2023/05/18 06:44:00;;;;;;;1.02;0.80;;;10.50;26.80;;;;;;5054911;28;20036;-64
2023/05/18 06:46:27;;;;;;;1.90;0.98;;;10.40;23.00;;;;;;5054822;28;20041;-64
2023/05/18 06:48:53;;;;;;;1.48;0.82;;;10.50;24.30;;;;;;5054712;28;20055;-64
2023/05/18 06:51:18;;;;;;;1.88;0.80;;;10.40;20.90;;;;;;5054439;28;20076;-64
2023/05/18 06:53:45;;;;;;;2.22;1.05;;;10.60;23.30;;;;;;5053379;28;20076;-64
2023/05/18 06:56:11;;;;;;;2.42;0.90;;;10.80;24.90;;;;;;5053178;28;20049;-69
2023/05/18 06:58:38;;;;;;;2.80;0.80;;;10.70;23.90;;;;;;5054296;28;20041;-68
2023/05/18 07:01:03;;;;;;;1.42;0.88;;;10.80;24.50;;;;;;5054036;28;20037;-65
2023/05/18 07:03:29;;;;;;;2.42;0.98;;;10.90;24.70;;;;;;5054125;28;20043;-65
2023/05/18 07:05:55;;;;;;;1.77;0.65;;;11.00;26.20;;;;;;5052722;28;20157;-65
2023/05/18 07:08:21;;;;;;;1.35;0.63;;;11.10;27.80;;;;;;5054322;28;20049;-66
2023/05/18 07:10:46;;;;;;;4.07;0.50;;;11.00;21.80;;;;;;5054065;28;20037;-65
2023/05/18 07:13:12;;;;;;;0.43;0.43;;;11.00;21.70;;;;;;5054205;28;20488;-65
2023/05/18 07:15:38;;;;;;;1.13;0.60;;;11.10;24.10;;;;;;5054013;28;20103;-66
2023/05/18 07:18:03;;;;;;;0.82;0.60;;;11.10;24.60;;;;;;5054074;28;20033;-65
2023/05/18 07:20:29;;;;;;;1.85;0.90;;;11.20;24.60;;;;;;5052838;28;20051;-68
2023/05/18 07:22:55;;;;;;;3.17;0.80;;;11.10;23.20;;;;;;5054084;28;20086;-64
2023/05/18 07:25:21;;;;;;;3.35;1.13;;;11.20;23.30;;;;;;5053780;28;20481;-64
2023/05/18 07:27:46;;;;;;;1.52;0.55;;;11.00;19.80;;;;;;5052310;28;20112;-64
2023/05/18 07:30:12;;;;;;;0.88;0.60;;;11.30;23.40;;;;;;5053941;28;20584;-64
2023/05/18 07:32:38;;;;;;;1.13;0.70;;;11.20;22.00;;;;;;5053756;28;20186;-64
2023/05/18 07:35:04;;;;;;;5.68;0.93;;;11.30;22.40;;;;;;5035901;28;20060;-63
2023/05/18 07:37:30;;;;;;;1.05;0.73;;;11.40;23.10;;;;;;5053730;28;20033;-64
2023/05/18 07:39:55;;;;;;;2.05;1.02;;;11.90;22.50;;;;;;5053297;28;20393;-65
2023/05/18 07:42:21;;;;;;;1.30;0.82;;;11.40;18.40;;;;;;5053542;28;20128;-66
2023/05/18 07:44:47;;;;;;;2.75;1.00;;;11.50;19.40;;;;;;5052066;28;20040;-64
2023/05/18 07:47:12;;;;;;;2.20;0.73;;;11.60;21.10;;;;;;5053553;28;20037;-65
2023/05/18 07:49:38;;;;;;;1.35;0.77;;;11.70;22.10;;;;;;5052579;28;20048;-65
2023/05/18 07:52:07;;;;;;;0.82;0.60;;;11.90;23.70;;;;;;5053485;28;20239;-65
2023/05/18 07:54:33;;;;;;;1.40;0.68;;;12.80;24.00;;;;;;5053350;28;20439;-65
2023/05/18 07:56:58;;;;;;;3.60;1.00;;;12.30;25.20;;;;;;5053127;28;20048;-65
2023/05/18 07:59:24;;;;;;;2.30;0.85;;;12.50;24.80;;;;;;5053296;28;20468;-64
2023/05/18 08:01:49;;;;;;;1.38;0.77;;;12.60;25.10;;;;;;5052127;28;20045;-64
2023/05/18 08:04:15;;;;;;;2.10;0.80;;;13.80;26.90;;;;;;5051626;28;20114;-65
2023/05/18 08:06:41;;;;;;;1.60;0.77;;;12.80;26.30;;;;;;5053022;28;20481;-64
2023/05/18 08:09:06;;;;;;;4.07;0.90;;;12.80;28.20;;;;;;5053015;28;20071;-64
2023/05/18 08:11:32;;;;;;;4.07;0.90;;;13.00;29.20;;;;;;5053296;28;20033;-64
2023/05/18 08:13:58;;;;;;;2.88;1.10;;;13.70;25.30;;;;;;5051996;28;20578;-64
2023/05/18 08:16:23;;;;;;;2.50;1.00;;;12.70;23.70;;;;;;5053235;28;20171;-65
2023/05/18 08:18:49;;;;;;;1.05;0.65;;;12.90;25.20;;;;;;5051616;28;20036;-65
2023/05/18 08:21:16;;;;;;;1.60;0.60;;;12.80;21.80;;;;;;5051618;28;20561;-64
2023/05/18 08:23:41;;;;;;;0.77;0.60;;;12.90;23.90;;;;;;5051878;28;20076;-64
2023/05/18 08:26:08;;;;;;;4.00;1.02;;;13.10;27.20;;;;;;5053029;28;20072;-65
2023/05/18 08:28:33;;;;;;;3.42;0.70;;;13.20;24.60;;;;;;5052796;28;20037;-64
2023/05/18 08:30:59;;;;;;;4.82;0.85;;;13.30;25.30;;;;;;5052472;28;20496;-64
2023/05/18 08:33:25;;;;;;;2.70;0.95;;;13.30;27.20;;;;;;5051183;28;20174;-64
2023/05/18 08:35:51;;;;;;;2.65;1.00;;;13.50;29.00;;;;;;5052769;28;20469;-64
2023/05/18 08:38:16;;;;;;;1.95;0.90;;;13.50;27.30;;;;;;5052707;28;20103;-64
2023/05/18 08:41:08;;;;;;;0.80;0.70;;;13.50;26.00;;;;;;5052647;28;20041;-64
2023/05/18 08:43:40;;;;;;;1.48;0.70;;;13.00;22.70;;;;;;5052811;28;20080;-64
2023/05/18 08:46:20;;;;;;;1.65;0.88;;;13.10;23.90;;;;;;5052781;28;20076;-64
2023/05/18 08:48:50;;;;;;;2.13;0.67;;;13.10;24.00;;;;;;5052364;28;20037;-64
2023/05/18 19:12:42;;;;;;;3.72;1.00;;;12.10;20.50;;;;;;5090078;28;20626;-62
2023/05/18 19:15:12;;;;;;;1.73;1.10;;;12.10;11.70;;;;;;5088956;28;20041;-62
2023/05/18 19:17:38;;;;;;;3.28;1.02;;;12.00;13.10;;;;;;5090165;28;20101;-63
2023/05/18 19:20:06;;;;;;;2.75;1.08;;;11.90;13.10;;;;;;5090241;28;20468;-64
2023/05/18 19:22:32;;;;;;;5.72;1.05;;;11.90;12.50;;;;;;5090351;28;20051;-65
2023/05/18 19:24:58;;;;;;;3.00;0.98;;;11.80;13.60;;;;;;5089884;28;20539;-64
2023/05/18 19:27:23;;;;;;;5.35;0.82;;;13.00;15.30;;;;;;5090009;28;20032;-64
2023/05/18 19:29:49;;;;;;;3.15;1.10;;;11.70;16.50;;;;;;5090299;28;20153;-64
2023/05/18 19:32:14;;;;;;;2.55;0.80;;;11.60;17.20;;;;;;5088663;28;20044;-63
2023/05/18 19:34:40;;;;;;;1.70;0.90;;;11.50;18.10;;;;;;5090207;28;20036;-64
2023/05/18 19:37:06;;;;;;;1.77;0.90;;;12.10;20.10;;;;;;5090124;28;20383;-63
2023/05/18 19:39:31;;;;;;;1.58;1.05;;;11.30;19.90;;;;;;5089785;28;20129;-63
2023/05/18 19:41:57;;;;;;;2.83;0.85;;;11.30;21.10;;;;;;5090002;28;20032;-64
2023/05/18 19:44:22;;;;;;;2.17;1.13;;;11.20;21.50;;;;;;5090013;28;20048;-63
2023/05/18 19:46:48;;;;;;;1.75;0.90;;;11.20;23.30;;;;;;5089912;28;20391;-63
2023/05/18 19:49:13;;;;;;;1.88;0.90;;;11.10;24.10;;;;;;5089949;28;20036;-64
2023/05/18 19:51:39;;;;;;;6.13;1.40;;;11.00;25.80;;;;;;5089456;28;20135;-63
2023/05/18 19:54:04;;;;;;;3.33;1.05;;;11.00;27.40;;;;;;5088253;28;20044;-64
2023/05/18 19:56:30;;;;;;;2.97;1.38;;;10.90;31.90;;;;;;5089624;28;20051;-64
2023/05/18 19:58:56;;;;;;;6.72;2.10;;;10.90;32.00;;;;;;5088365;28;20041;-64
2023/05/18 20:01:23;;;;;;;6.10;1.90;;;10.80;32.70;;;;;;5089601;28;20395;-64
2023/05/18 20:03:50;;;;;;;1.67;1.00;;;10.80;34.30;;;;;;5089299;28;20044;-64
2023/05/18 20:06:16;;;;;;;1.77;0.90;;;10.60;40.00;;;;;;5089480;28;20029;-63
2023/05/18 20:08:42;;;;;;;5.38;1.58;;;10.80;99.90;;;;;;5089552;28;20085;-63
2023/05/18 20:11:08;;;;;;;7.65;1.30;;;10.90;99.90;;;;;;5096426;28;20055;-64
2023/05/18 20:13:34;;;;;;;3.03;1.38;;;10.80;1.00;;;;;;5109778;28;20086;-64
2023/05/18 20:16:04;;;;;;;5.53;1.00;;;10.70;1.00;;;;;;5091119;28;20111;-67
2023/05/18 20:18:36;;;;;;;4.18;1.40;;;10.70;1.00;;;;;;5109661;28;20036;-64
2023/05/18 20:21:02;;;;;;;3.22;0.85;;;10.70;1.00;;;;;;5091308;28;20130;-63
2023/05/18 20:23:28;;;;;;;2.22;0.98;;;10.40;1.00;;;;;;5099343;28;20490;-64
2023/05/18 20:25:54;;;;;;;6.40;1.15;;;10.50;1.00;;;;;;5095913;28;20036;-63
2023/05/18 20:28:20;;;;;;;4.53;0.98;;;10.50;1.00;;;;;;5095525;28;20122;-64
2023/05/18 20:30:46;;;;;;;4.22;1.13;;;10.50;1.00;;;;;;5095512;28;20070;-63
2023/05/18 20:33:12;;;;;;;3.15;1.17;;;10.60;1.00;;;;;;5095643;28;20045;-63
2023/05/18 20:35:38;;;;;;;5.70;1.73;;;10.30;1.00;;;;;;5095504;28;20039;-63
2023/05/18 20:38:04;;;;;;;4.32;0.90;;;;;;;;;;5095814;28;20078;-63
2023/05/18 20:40:30;;;;;;;1.25;0.90;;;;;;;;;;5095797;28;20075;-64
2023/05/18 20:42:57;;;;;;;1.50;1.00;;;10.00;99.90;;;;;;5095677;28;20039;-63
2023/05/18 20:45:28;;;;;;;3.78;0.85;;;10.30;99.90;;;;;;5095662;28;20036;-63
2023/05/18 20:47:55;;;;;;;2.42;1.00;;;9.90;99.90;;;;;;5095607;28;20521;-63
2023/05/18 20:50:23;;;;;;;2.38;1.10;;;9.80;99.90;;;;;;5076988;28;20121;-63
2023/05/18 20:52:49;;;;;;;1.88;0.95;;;9.60;99.90;;;;;;5095547;28;20047;-63
2023/05/18 20:55:17;;;;;;;2.72;1.08;;;9.60;99.90;;;;;;5077053;28;20043;-63
2023/05/18 20:57:44;;;;;;;3.47;1.10;;;9.60;99.90;;;;;;5095244;28;20044;-63
2023/05/18 21:00:11;;;;;;;2.67;0.80;;;9.20;99.90;;;;;;5077251;28;20055;-63
2023/05/18 21:02:40;;;;;;;4.00;1.40;;;9.50;99.90;;;;;;5077108;28;20044;-63
2023/05/18 21:05:06;;;;;;;4.30;1.35;;;9.70;99.90;;;;;;5077050;28;20118;-64
2023/05/18 21:07:33;;;;;;;1.45;0.90;;;9.40;99.90;;;;;;5076779;28;20051;-63
2023/05/18 21:10:00;;;;;;;3.13;1.10;;;9.40;99.90;;;;;;5095100;28;20480;-63
2023/05/18 21:12:26;;;;;;;4.63;1.05;;;9.30;99.90;;;;;;5094660;28;20121;-67
2023/05/18 21:14:52;;;;;;;2.13;1.77;;;9.40;99.90;;;;;;5077103;28;20468;-64
2023/05/18 21:17:18;;;;;;;5.38;1.27;;;9.40;99.90;;;;;;5095015;28;20042;-64
2023/05/18 21:19:44;;;;;;;1.52;0.90;;;9.40;99.90;;;;;;5094974;28;20036;-64
2023/05/18 21:22:10;;;;;;;2.78;0.90;;;9.30;99.90;;;;;;5094599;28;20426;-64
2023/05/18 21:24:35;;;;;;;3.05;0.73;;;9.20;99.90;;;;;;5094911;28;20082;-63
2023/05/18 21:27:02;;;;;;;6.30;1.60;;;9.10;99.90;;;;;;5094821;28;20120;-64
2023/05/18 21:29:27;;;;;;;1.90;1.27;;;9.70;99.90;;;;;;5094729;28;20040;-64
2023/05/18 21:31:53;;;;;;;4.28;1.38;;;9.70;99.90;;;;;;5094648;28;20036;-64
2023/05/18 21:34:18;;;;;;;4.18;1.33;;;9.10;99.90;;;;;;5075353;28;20036;-64
2023/05/18 21:36:44;;;;;;;3.00;1.05;;;9.10;99.90;;;;;;5094396;28;20040;-63
2023/05/18 21:39:10;;;;;;;6.03;1.25;;;9.00;99.90;;;;;;5076324;28;20047;-64
2023/05/18 21:41:38;;;;;;;3.38;1.52;;;9.00;99.90;;;;;;5076365;28;20043;-63
2023/05/18 21:44:05;;;;;;;2.60;1.23;;;8.70;99.90;;;;;;5076807;28;20559;-64
2023/05/18 21:46:30;;;;;;;3.88;1.10;;;8.90;99.90;;;;;;5094515;28;20032;-63
2023/05/18 21:48:56;;;;;;;6.70;1.52;;;8.90;99.90;;;;;;5094116;28;20433;-64
2023/05/18 21:51:24;;;;;;;1.67;0.98;;;8.90;99.90;;;;;;5094379;28;20464;-64
2023/05/18 21:53:49;;;;;;;4.90;1.50;;;8.90;99.90;;;;;;5094347;28;20089;-64
2023/05/18 21:56:15;;;;;;;9.02;1.40;;;8.90;99.90;;;;;;5075870;28;20442;-64
2023/05/18 21:58:41;;;;;;;1.17;0.80;;;8.70;28.70;;;;;;5094004;28;20414;-64
2023/05/18 22:01:06;;;;;;;2.88;1.40;;;8.80;1.00;;;;;;5094258;28;20089;-64
2023/05/18 22:03:32;;;;;;;2.15;0.85;;;9.00;1.00;;;;;;5094196;28;20051;-64
2023/05/18 22:05:57;;;;;;;4.68;1.25;;;8.70;99.90;;;;;;5094121;28;20552;-64
2023/05/18 22:08:23;;;;;;;7.60;1.30;;;8.70;98.10;;;;;;5094058;28;20040;-64
2023/05/18 22:10:49;;;;;;;2.15;1.15;;;8.70;99.90;;;;;;5093766;28;20052;-64
2023/05/18 22:13:14;;;;;;;2.95;1.27;;;8.70;99.90;;;;;;5093949;28;20051;-64
2023/05/18 22:15:40;;;;;;;5.40;1.70;;;8.60;99.90;;;;;;5093924;28;20028;-64
2023/05/18 22:18:06;;;;;;;6.15;1.60;;;8.70;99.90;;;;;;5093714;28;20036;-64
2023/05/18 22:20:32;;;;;;;2.45;1.20;;;8.70;99.90;;;;;;5093956;28;20395;-64
2023/05/18 22:22:58;;;;;;;1.80;1.00;;;8.90;99.90;;;;;;5093541;28;20039;-64
2023/05/18 22:25:25;;;;;;;4.15;1.30;;;8.60;99.90;;;;;;5093753;28;20036;-64
2023/05/18 22:27:51;;;;;;;4.90;1.83;;;9.30;99.90;;;;;;5093743;28;20039;-64
2023/05/18 22:30:17;;;;;;;5.93;1.58;;;8.70;99.90;;;;;;5093692;28;20051;-64
2023/05/18 22:32:44;;;;;;;1.52;1.15;;;8.80;99.90;;;;;;5093326;28;20048;-64
2023/05/18 22:35:10;;;;;;;7.25;1.75;;;8.70;99.90;;;;;;5093624;28;20484;-64
2023/05/18 22:37:36;;;;;;;5.60;1.70;;;8.60;99.90;;;;;;5093262;28;20043;-64
2023/05/18 22:40:04;;;;;;;2.40;1.40;;;8.90;99.90;;;;;;5093555;28;20032;-64
2023/05/18 22:42:30;;;;;;;5.80;1.50;;;8.70;56.10;;;;;;5093592;28;20498;-64
2023/05/18 22:44:56;;;;;;;2.33;1.20;;;8.60;99.90;;;;;;5093447;28;20047;-64
2023/05/18 22:47:22;;;;;;;3.72;1.48;;;8.80;99.90;;;;;;5093265;28;20472;-64
2023/05/18 22:49:48;;;;;;;2.85;1.38;;;8.70;96.80;;;;;;5093486;28;20040;-64
2023/05/18 22:52:15;;;;;;;2.58;1.60;;;8.70;17.10;;;;;;5093055;28;20043;-64
2023/05/18 22:54:41;;;;;;;5.78;1.30;;;8.60;99.90;;;;;;5075329;28;20039;-64
2023/05/18 22:57:07;;;;;;;3.00;1.58;;;8.50;99.90;;;;;;5075283;28;20040;-64
2023/05/18 22:59:33;;;;;;;4.55;1.65;;;8.50;1.00;;;;;;5093323;28;20376;-64
2023/05/18 23:01:59;;;;;;;4.13;1.90;;;8.60;1.00;;;;;;5093222;28;20040;-64
2023/05/18 23:04:24;;;;;;;3.13;1.73;;;8.70;99.90;;;;;;5093295;28;20070;-64
2023/05/18 23:06:50;;;;;;;4.45;2.10;;;8.50;99.90;;;;;;5093265;28;20089;-64
2023/05/18 23:09:16;;;;;;;4.03;1.85;;;8.60;99.90;;;;;;5093150;28;20046;-64
2023/05/18 23:11:44;;;;;;;2.70;1.60;;;8.60;1.00;;;;;;5092740;28;20130;-64
2023/05/18 23:14:11;;;;;;;5.80;2.30;;;8.80;99.90;;;;;;5093211;28;20044;-64